sensor_id;sensor_type;location;lat;lon;timestamp;temperature;humidity
72277;SHT30;61204;49.980;8.358;2023-05-13T00:00:40;10.73;89.86
72277;SHT30;61204;49.980;8.358;2023-05-13T00:03:06;10.72;89.96
72277;SHT30;61204;49.980;8.358;2023-05-13T00:05:31;10.67;89.82
72277;SHT30;61204;49.980;8.358;2023-05-13T00:07:56;10.62;89.93
72277;SHT30;61204;49.980;8.358;2023-05-13T00:10:26;10.58;90.52
72277;SHT30;61204;49.980;8.358;2023-05-13T00:12:51;10.56;90.50
72277;SHT30;61204;49.980;8.358;2023-05-13T00:15:17;10.53;90.66
72277;SHT30;61204;49.980;8.358;2023-05-13T00:17:42;10.48;90.83
72277;SHT30;61204;49.980;8.358;2023-05-13T00:20:08;10.45;90.97
72277;SHT30;61204;49.980;8.358;2023-05-13T00:22:33;10.46;91.31
72277;SHT30;61204;49.980;8.358;2023-05-13T00:24:59;10.48;91.14
72277;SHT30;61204;49.980;8.358;2023-05-13T00:27:25;10.49;91.20
72277;SHT30;61204;49.980;8.358;2023-05-13T00:29:52;10.45;91.13
72277;SHT30;61204;49.980;8.358;2023-05-13T00:32:18;10.41;91.18
72277;SHT30;61204;49.980;8.358;2023-05-13T00:34:43;10.41;91.40
72277;SHT30;61204;49.980;8.358;2023-05-13T00:37:08;10.37;91.55
72277;SHT30;61204;49.980;8.358;2023-05-13T00:39:35;10.38;91.69
72277;SHT30;61204;49.980;8.358;2023-05-13T00:42:00;10.41;92.00
72277;SHT30;61204;49.980;8.358;2023-05-13T00:44:28;10.49;91.91
72277;SHT30;61204;49.980;8.358;2023-05-13T00:46:54;10.59;91.19
72277;SHT30;61204;49.980;8.358;2023-05-13T00:49:20;10.83;90.34
72277;SHT30;61204;49.980;8.358;2023-05-13T00:51:46;11.06;88.72
72277;SHT30;61204;49.980;8.358;2023-05-13T00:54:14;11.18;87.82
72277;SHT30;61204;49.980;8.358;2023-05-13T00:56:45;11.31;87.02
72277;SHT30;61204;49.980;8.358;2023-05-13T00:59:10;11.45;86.30
72277;SHT30;61204;49.980;8.358;2023-05-13T01:05:03;11.63;85.46
72277;SHT30;61204;49.980;8.358;2023-05-13T01:08:01;11.70;85.03
72277;SHT30;61204;49.980;8.358;2023-05-13T01:10:44;11.66;85.44
72277;SHT30;61204;49.980;8.358;2023-05-13T01:13:25;11.59;85.66
72277;SHT30;61204;49.980;8.358;2023-05-13T01:15:59;11.54;86.06
72277;SHT30;61204;49.980;8.358;2023-05-13T01:18:35;11.48;86.68
72277;SHT30;61204;49.980;8.358;2023-05-13T01:21:02;11.48;86.91
72277;SHT30;61204;49.980;8.358;2023-05-13T01:23:30;11.42;87.53
72277;SHT30;61204;49.980;8.358;2023-05-13T01:25:56;11.36;87.48
72277;SHT30;61204;49.980;8.358;2023-05-13T01:28:21;11.27;88.21
72277;SHT30;61204;49.980;8.358;2023-05-13T01:30:50;11.21;88.56
72277;SHT30;61204;49.980;8.358;2023-05-13T01:33:16;11.17;88.86
72277;SHT30;61204;49.980;8.358;2023-05-13T01:35:44;11.15;89.21
72277;SHT30;61204;49.980;8.358;2023-05-13T01:38:13;11.14;89.40
72277;SHT30;61204;49.980;8.358;2023-05-13T01:40:41;11.15;89.50
72277;SHT30;61204;49.980;8.358;2023-05-13T01:43:06;11.11;89.37
72277;SHT30;61204;49.980;8.358;2023-05-13T01:45:32;11.13;89.38
72277;SHT30;61204;49.980;8.358;2023-05-13T01:47:58;11.14;89.57
72277;SHT30;61204;49.980;8.358;2023-05-13T01:50:24;11.21;89.35
72277;SHT30;61204;49.980;8.358;2023-05-13T01:52:50;11.18;89.19
72277;SHT30;61204;49.980;8.358;2023-05-13T01:55:16;11.21;88.97
72277;SHT30;61204;49.980;8.358;2023-05-13T01:57:41;11.22;89.07
72277;SHT30;61204;49.980;8.358;2023-05-13T02:00:07;11.24;89.01
72277;SHT30;61204;49.980;8.358;2023-05-13T02:02:33;11.24;89.00
72277;SHT30;61204;49.980;8.358;2023-05-13T02:04:58;11.24;89.00
72277;SHT30;61204;49.980;8.358;2023-05-13T02:07:24;11.21;89.13
72277;SHT30;61204;49.980;8.358;2023-05-13T02:09:49;11.22;89.18
72277;SHT30;61204;49.980;8.358;2023-05-13T02:12:15;11.24;89.45
72277;SHT30;61204;49.980;8.358;2023-05-13T02:14:43;11.20;89.35
72277;SHT30;61204;49.980;8.358;2023-05-13T02:17:11;11.24;89.34
72277;SHT30;61204;49.980;8.358;2023-05-13T02:19:37;11.24;89.38
72277;SHT30;61204;49.980;8.358;2023-05-13T02:22:02;11.24;89.36
72277;SHT30;61204;49.980;8.358;2023-05-13T02:24:30;11.22;89.43
72277;SHT30;61204;49.980;8.358;2023-05-13T02:26:55;11.18;89.55
72277;SHT30;61204;49.980;8.358;2023-05-13T02:29:21;11.18;89.77
72277;SHT30;61204;49.980;8.358;2023-05-13T02:31:49;11.17;89.80
72277;SHT30;61204;49.980;8.358;2023-05-13T02:34:14;11.15;89.82
72277;SHT30;61204;49.980;8.358;2023-05-13T02:36:39;11.10;89.94
72277;SHT30;61204;49.980;8.358;2023-05-13T02:39:05;11.08;90.16
72277;SHT30;61204;49.980;8.358;2023-05-13T02:41:31;11.07;90.26
72277;SHT30;61204;49.980;8.358;2023-05-13T02:43:56;11.01;90.53
72277;SHT30;61204;49.980;8.358;2023-05-13T02:46:21;11.01;90.53
72277;SHT30;61204;49.980;8.358;2023-05-13T02:48:47;10.96;90.64
72277;SHT30;61204;49.980;8.358;2023-05-13T02:51:12;10.92;90.69
72277;SHT30;61204;49.980;8.358;2023-05-13T02:53:40;10.87;90.63
72277;SHT30;61204;49.980;8.358;2023-05-13T02:56:06;10.84;90.63
72277;SHT30;61204;49.980;8.358;2023-05-13T02:58:33;10.81;90.98
72277;SHT30;61204;49.980;8.358;2023-05-13T03:00:58;10.76;90.92
72277;SHT30;61204;49.980;8.358;2023-05-13T03:03:26;10.70;90.93
72277;SHT30;61204;49.980;8.358;2023-05-13T03:05:51;10.67;90.99
72277;SHT30;61204;49.980;8.358;2023-05-13T03:08:16;10.65;91.22
72277;SHT30;61204;49.980;8.358;2023-05-13T03:10:42;10.63;91.34
72277;SHT30;61204;49.980;8.358;2023-05-13T03:13:07;10.60;91.49
72277;SHT30;61204;49.980;8.358;2023-05-13T03:15:33;10.59;91.58
72277;SHT30;61204;49.980;8.358;2023-05-13T03:17:58;10.53;91.45
72277;SHT30;61204;49.980;8.358;2023-05-13T03:20:23;10.49;91.49
72277;SHT30;61204;49.980;8.358;2023-05-13T03:22:49;10.46;91.56
72277;SHT30;61204;49.980;8.358;2023-05-13T03:25:17;10.44;91.58
72277;SHT30;61204;49.980;8.358;2023-05-13T03:27:42;10.41;91.63
72277;SHT30;61204;49.980;8.358;2023-05-13T03:30:08;10.37;91.66
72277;SHT30;61204;49.980;8.358;2023-05-13T03:32:34;10.34;91.71
72277;SHT30;61204;49.980;8.358;2023-05-13T03:34:59;10.32;91.80
72277;SHT30;61204;49.980;8.358;2023-05-13T03:37:28;10.30;91.82
72277;SHT30;61204;49.980;8.358;2023-05-13T03:39:53;10.28;91.85
72277;SHT30;61204;49.980;8.358;2023-05-13T03:42:19;10.30;91.80
72277;SHT30;61204;49.980;8.358;2023-05-13T03:44:45;10.27;91.79
72277;SHT30;61204;49.980;8.358;2023-05-13T03:47:10;10.30;91.74
72277;SHT30;61204;49.980;8.358;2023-05-13T03:49:36;10.28;91.77
72277;SHT30;61204;49.980;8.358;2023-05-13T03:52:02;10.34;91.52
72277;SHT30;61204;49.980;8.358;2023-05-13T03:54:27;10.34;91.02
72277;SHT30;61204;49.980;8.358;2023-05-13T03:56:52;10.31;91.10
72277;SHT30;61204;49.980;8.358;2023-05-13T03:59:18;10.35;91.01
72277;SHT30;61204;49.980;8.358;2023-05-13T04:01:43;10.37;90.70
72277;SHT30;61204;49.980;8.358;2023-05-13T04:04:09;10.39;90.56
72277;SHT30;61204;49.980;8.358;2023-05-13T04:06:34;10.44;89.98
72277;SHT30;61204;49.980;8.358;2023-05-13T04:09:00;10.44;89.72
72277;SHT30;61204;49.980;8.358;2023-05-13T04:11:28;10.49;88.66
72277;SHT30;61204;49.980;8.358;2023-05-13T04:13:54;10.55;88.41
72277;SHT30;61204;49.980;8.358;2023-05-13T04:16:22;10.53;88.38
72277;SHT30;61204;49.980;8.358;2023-05-13T04:18:50;10.49;88.51
72277;SHT30;61204;49.980;8.358;2023-05-13T04:21:15;10.45;88.65
72277;SHT30;61204;49.980;8.358;2023-05-13T04:23:41;10.49;88.48
72277;SHT30;61204;49.980;8.358;2023-05-13T04:26:06;10.46;88.54
72277;SHT30;61204;49.980;8.358;2023-05-13T04:28:32;10.46;88.28
72277;SHT30;61204;49.980;8.358;2023-05-13T04:30:59;10.48;88.30
72277;SHT30;61204;49.980;8.358;2023-05-13T04:33:25;10.49;88.21
72277;SHT30;61204;49.980;8.358;2023-05-13T04:35:51;10.48;88.20
72277;SHT30;61204;49.980;8.358;2023-05-13T04:38:16;10.49;88.35
72277;SHT30;61204;49.980;8.358;2023-05-13T04:40:43;10.50;88.38
72277;SHT30;61204;49.980;8.358;2023-05-13T04:43:12;10.52;88.41
72277;SHT30;61204;49.980;8.358;2023-05-13T04:45:38;10.55;88.39
72277;SHT30;61204;49.980;8.358;2023-05-13T04:48:04;10.60;88.41
72277;SHT30;61204;49.980;8.358;2023-05-13T04:50:29;10.69;88.33
72277;SHT30;61204;49.980;8.358;2023-05-13T04:52:56;10.77;88.06
72277;SHT30;61204;49.980;8.358;2023-05-13T04:55:22;10.87;87.84
72277;SHT30;61204;49.980;8.358;2023-05-13T04:57:47;10.96;87.33
72277;SHT30;61204;49.980;8.358;2023-05-13T05:00:13;11.11;86.17
72277;SHT30;61204;49.980;8.358;2023-05-13T05:02:39;11.25;85.72
72277;SHT30;61204;49.980;8.358;2023-05-13T05:05:07;11.38;85.42
72277;SHT30;61204;49.980;8.358;2023-05-13T05:07:33;11.48;85.11
72277;SHT30;61204;49.980;8.358;2023-05-13T05:09:59;11.76;83.89
72277;SHT30;61204;49.980;8.358;2023-05-13T05:12:26;11.90;83.11
72277;SHT30;61204;49.980;8.358;2023-05-13T05:14:52;12.08;83.24
72277;SHT30;61204;49.980;8.358;2023-05-13T05:17:17;12.35;83.60
72277;SHT30;61204;49.980;8.358;2023-05-13T05:19:43;12.69;82.63
72277;SHT30;61204;49.980;8.358;2023-05-13T05:22:08;13.07;82.42
72277;SHT30;61204;49.980;8.358;2023-05-13T05:24:33;13.37;82.46
72277;SHT30;61204;49.980;8.358;2023-05-13T05:26:59;13.63;82.31
72277;SHT30;61204;49.980;8.358;2023-05-13T05:29:25;13.73;80.56
72277;SHT30;61204;49.980;8.358;2023-05-13T05:31:50;13.80;79.80
72277;SHT30;61204;49.980;8.358;2023-05-13T05:34:16;13.97;79.72
72277;SHT30;61204;49.980;8.358;2023-05-13T05:36:41;14.17;79.35
72277;SHT30;61204;49.980;8.358;2023-05-13T05:39:07;14.55;78.02
72277;SHT30;61204;49.980;8.358;2023-05-13T05:41:32;15.00;77.73
72277;SHT30;61204;49.980;8.358;2023-05-13T05:43:58;15.34;76.46
72277;SHT30;61204;49.980;8.358;2023-05-13T05:46:23;15.45;73.89
72277;SHT30;61204;49.980;8.358;2023-05-13T05:48:49;15.51;73.50
72277;SHT30;61204;49.980;8.358;2023-05-13T05:51:14;15.54;72.91
72277;SHT30;61204;49.980;8.358;2023-05-13T05:53:40;15.56;72.37
72277;SHT30;61204;49.980;8.358;2023-05-13T05:56:06;15.58;71.82
72277;SHT30;61204;49.980;8.358;2023-05-13T05:58:32;15.67;72.05
72277;SHT30;61204;49.980;8.358;2023-05-13T06:00:58;15.65;71.73
72277;SHT30;61204;49.980;8.358;2023-05-13T06:03:25;15.70;71.80
72277;SHT30;61204;49.980;8.358;2023-05-13T06:05:52;15.82;72.17
72277;SHT30;61204;49.980;8.358;2023-05-13T06:08:18;16.18;70.91
72277;SHT30;61204;49.980;8.358;2023-05-13T06:10:43;16.49;69.95
72277;SHT30;61204;49.980;8.358;2023-05-13T06:13:09;16.69;69.55
72277;SHT30;61204;49.980;8.358;2023-05-13T06:15:37;16.73;69.14
72277;SHT30;61204;49.980;8.358;2023-05-13T06:18:03;16.69;69.06
72277;SHT30;61204;49.980;8.358;2023-05-13T06:20:30;16.42;69.13
72277;SHT30;61204;49.980;8.358;2023-05-13T06:22:56;16.58;68.77
72277;SHT30;61204;49.980;8.358;2023-05-13T06:25:22;16.58;68.41
72277;SHT30;61204;49.980;8.358;2023-05-13T06:27:50;16.68;69.02
72277;SHT30;61204;49.980;8.358;2023-05-13T06:30:18;16.72;67.48
72277;SHT30;61204;49.980;8.358;2023-05-13T06:32:44;16.96;67.20
72277;SHT30;61204;49.980;8.358;2023-05-13T06:35:09;16.79;66.19
72277;SHT30;61204;49.980;8.358;2023-05-13T06:37:35;16.87;67.18
72277;SHT30;61204;49.980;8.358;2023-05-13T06:40:00;17.13;66.40
72277;SHT30;61204;49.980;8.358;2023-05-13T06:42:26;17.27;64.37
72277;SHT30;61204;49.980;8.358;2023-05-13T06:44:53;17.14;63.37
72277;SHT30;61204;49.980;8.358;2023-05-13T06:47:19;17.44;63.61
72277;SHT30;61204;49.980;8.358;2023-05-13T06:49:44;17.82;63.10
72277;SHT30;61204;49.980;8.358;2023-05-13T06:52:10;17.86;61.40
72277;SHT30;61204;49.980;8.358;2023-05-13T06:54:35;18.23;61.24
72277;SHT30;61204;49.980;8.358;2023-05-13T06:57:01;18.48;60.27
72277;SHT30;61204;49.980;8.358;2023-05-13T06:59:29;18.47;58.79
72277;SHT30;61204;49.980;8.358;2023-05-13T07:01:55;18.83;59.06
72277;SHT30;61204;49.980;8.358;2023-05-13T07:04:21;19.02;57.87
72277;SHT30;61204;49.980;8.358;2023-05-13T07:06:46;19.08;55.52
72277;SHT30;61204;49.980;8.358;2023-05-13T07:09:13;19.47;56.39
72277;SHT30;61204;49.980;8.358;2023-05-13T07:11:38;19.79;53.73
72277;SHT30;61204;49.980;8.358;2023-05-13T07:14:04;20.17;52.71
72277;SHT30;61204;49.980;8.358;2023-05-13T07:16:29;20.00;52.87
72277;SHT30;61204;49.980;8.358;2023-05-13T07:18:55;20.40;49.98
72277;SHT30;61204;49.980;8.358;2023-05-13T07:21:20;20.18;51.40
72277;SHT30;61204;49.980;8.358;2023-05-13T07:23:46;20.03;51.72
72277;SHT30;61204;49.980;8.358;2023-05-13T07:26:11;20.27;52.03
72277;SHT30;61204;49.980;8.358;2023-05-13T07:28:37;20.79;52.94
72277;SHT30;61204;49.980;8.358;2023-05-13T07:31:05;21.00;50.83
72277;SHT30;61204;49.980;8.358;2023-05-13T07:33:31;21.00;50.47
72277;SHT30;61204;49.980;8.358;2023-05-13T07:35:57;20.75;51.13
72277;SHT30;61204;49.980;8.358;2023-05-13T07:38:22;20.95;51.23
72277;SHT30;61204;49.980;8.358;2023-05-13T07:40:48;19.50;50.97
72277;SHT30;61204;49.980;8.358;2023-05-13T07:43:14;19.25;53.00
72277;SHT30;61204;49.980;8.358;2023-05-13T07:45:42;18.93;52.45
72277;SHT30;61204;49.980;8.358;2023-05-13T07:48:07;18.52;53.37
72277;SHT30;61204;49.980;8.358;2023-05-13T07:50:34;18.33;54.53
72277;SHT30;61204;49.980;8.358;2023-05-13T07:52:59;18.38;55.23
72277;SHT30;61204;49.980;8.358;2023-05-13T07:55:26;18.35;55.62
72277;SHT30;61204;49.980;8.358;2023-05-13T07:57:51;18.75;55.25
72277;SHT30;61204;49.980;8.358;2023-05-13T08:00:19;18.89;53.91
72277;SHT30;61204;49.980;8.358;2023-05-13T08:02:45;19.58;52.94
72277;SHT30;61204;49.980;8.358;2023-05-13T08:05:13;20.59;50.96
72277;SHT30;61204;49.980;8.358;2023-05-13T08:07:38;21.31;47.79
72277;SHT30;61204;49.980;8.358;2023-05-13T08:10:04;20.93;47.35
72277;SHT30;61204;49.980;8.358;2023-05-13T08:12:30;20.97;46.77
72277;SHT30;61204;49.980;8.358;2023-05-13T08:14:55;21.07;47.24
72277;SHT30;61204;49.980;8.358;2023-05-13T08:17:21;21.48;47.94
72277;SHT30;61204;49.980;8.358;2023-05-13T08:19:49;21.88;45.10
72277;SHT30;61204;49.980;8.358;2023-05-13T08:22:15;22.02;44.98
72277;SHT30;61204;49.980;8.358;2023-05-13T08:24:42;21.24;46.79
72277;SHT30;61204;49.980;8.358;2023-05-13T08:27:08;21.35;47.75
72277;SHT30;61204;49.980;8.358;2023-05-13T08:29:36;21.75;46.85
72277;SHT30;61204;49.980;8.358;2023-05-13T08:32:01;22.04;45.04
72277;SHT30;61204;49.980;8.358;2023-05-13T08:34:29;21.93;44.43
72277;SHT30;61204;49.980;8.358;2023-05-13T08:36:54;21.17;45.32
72277;SHT30;61204;49.980;8.358;2023-05-13T08:39:20;21.21;46.24
72277;SHT30;61204;49.980;8.358;2023-05-13T08:41:46;21.48;44.58
72277;SHT30;61204;49.980;8.358;2023-05-13T08:44:15;22.07;45.46
72277;SHT30;61204;49.980;8.358;2023-05-13T08:46:50;22.43;45.27
72277;SHT30;61204;49.980;8.358;2023-05-13T08:49:22;23.48;42.10
72277;SHT30;61204;49.980;8.358;2023-05-13T08:51:48;23.36;41.60
72277;SHT30;61204;49.980;8.358;2023-05-13T08:54:14;23.68;42.32
72277;SHT30;61204;49.980;8.358;2023-05-13T08:56:41;24.61;42.75
72277;SHT30;61204;49.980;8.358;2023-05-13T08:59:07;25.10;39.36
72277;SHT30;61204;49.980;8.358;2023-05-13T09:01:32;25.48;38.21
72277;SHT30;61204;49.980;8.358;2023-05-13T09:04:01;25.58;38.39
72277;SHT30;61204;49.980;8.358;2023-05-13T09:06:30;25.22;38.83
72277;SHT30;61204;49.980;8.358;2023-05-13T09:08:58;25.06;37.70
72277;SHT30;61204;49.980;8.358;2023-05-13T09:11:24;25.58;38.64
72277;SHT30;61204;49.980;8.358;2023-05-13T09:14:01;26.65;37.55
72277;SHT30;61204;49.980;8.358;2023-05-13T09:16:32;26.57;34.98
72277;SHT30;61204;49.980;8.358;2023-05-13T09:19:04;25.81;36.98
72277;SHT30;61204;49.980;8.358;2023-05-13T09:21:33;26.53;37.86
72277;SHT30;61204;49.980;8.358;2023-05-13T09:24:13;27.26;37.21
72277;SHT30;61204;49.980;8.358;2023-05-13T09:26:42;27.26;35.38
72277;SHT30;61204;49.980;8.358;2023-05-13T09:29:23;26.96;35.85
72277;SHT30;61204;49.980;8.358;2023-05-13T09:31:55;26.57;36.08
72277;SHT30;61204;49.980;8.358;2023-05-13T09:34:33;26.29;36.03
72277;SHT30;61204;49.980;8.358;2023-05-13T09:37:01;26.57;36.80
72277;SHT30;61204;49.980;8.358;2023-05-13T09:39:30;26.57;36.22
72277;SHT30;61204;49.980;8.358;2023-05-13T09:42:14;26.47;36.38
72277;SHT30;61204;49.980;8.358;2023-05-13T09:44:41;27.06;35.90
72277;SHT30;61204;49.980;8.358;2023-05-13T09:47:14;27.10;34.96
72277;SHT30;61204;49.980;8.358;2023-05-13T09:49:42;26.94;36.29
72277;SHT30;61204;49.980;8.358;2023-05-13T09:52:10;27.03;36.15
72277;SHT30;61204;49.980;8.358;2023-05-13T09:54:40;26.98;36.35
72277;SHT30;61204;49.980;8.358;2023-05-13T09:57:06;26.51;36.28
72277;SHT30;61204;49.980;8.358;2023-05-13T09:59:34;27.10;36.34
72277;SHT30;61204;49.980;8.358;2023-05-13T10:02:04;27.12;35.83
72277;SHT30;61204;49.980;8.358;2023-05-13T10:04:31;27.70;35.01
72277;SHT30;61204;49.980;8.358;2023-05-13T10:07:02;27.96;35.23
72277;SHT30;61204;49.980;8.358;2023-05-13T10:09:35;28.19;34.82
72277;SHT30;61204;49.980;8.358;2023-05-13T10:12:06;28.01;33.68
72277;SHT30;61204;49.980;8.358;2023-05-13T10:14:36;26.89;35.63
72277;SHT30;61204;49.980;8.358;2023-05-13T10:17:02;27.44;35.11
72277;SHT30;61204;49.980;8.358;2023-05-13T10:19:31;28.19;34.28
72277;SHT30;61204;49.980;8.358;2023-05-13T10:22:00;28.44;33.97
72277;SHT30;61204;49.980;8.358;2023-05-13T10:24:26;28.10;35.13
72277;SHT30;61204;49.980;8.358;2023-05-13T10:26:53;28.08;35.06
72277;SHT30;61204;49.980;8.358;2023-05-13T10:29:21;28.42;34.34
72277;SHT30;61204;49.980;8.358;2023-05-13T10:31:49;29.08;33.69
72277;SHT30;61204;49.980;8.358;2023-05-13T10:34:16;29.13;32.04
72277;SHT30;61204;49.980;8.358;2023-05-13T10:44:53;29.46;33.24
72277;SHT30;61204;49.980;8.358;2023-05-13T10:47:21;28.39;34.50
72277;SHT30;61204;49.980;8.358;2023-05-13T10:49:50;27.54;35.71
72277;SHT30;61204;49.980;8.358;2023-05-13T10:52:19;28.31;34.20
72277;SHT30;61204;49.980;8.358;2023-05-13T10:54:59;29.18;32.98
72277;SHT30;61204;49.980;8.358;2023-05-13T10:57:34;28.46;33.30
72277;SHT30;61204;49.980;8.358;2023-05-13T11:00:14;29.76;32.18
72277;SHT30;61204;49.980;8.358;2023-05-13T11:02:40;29.46;31.51
72277;SHT30;61204;49.980;8.358;2023-05-13T11:05:06;30.08;31.78
72277;SHT30;61204;49.980;8.358;2023-05-13T11:07:37;30.41;30.30
72277;SHT30;61204;49.980;8.358;2023-05-13T11:10:28;30.52;30.49
72277;SHT30;61204;49.980;8.358;2023-05-13T11:13:19;30.00;30.34
72277;SHT30;61204;49.980;8.358;2023-05-13T11:15:53;29.33;31.30
72277;SHT30;61204;49.980;8.358;2023-05-13T11:18:28;27.92;34.00
72277;SHT30;61204;49.980;8.358;2023-05-13T11:21:01;26.26;35.41
72277;SHT30;61204;49.980;8.358;2023-05-13T11:23:28;26.34;36.25
72277;SHT30;61204;49.980;8.358;2023-05-13T11:26:13;26.62;34.97
72277;SHT30;61204;49.980;8.358;2023-05-13T11:28:56;26.92;35.16
72277;SHT30;61204;49.980;8.358;2023-05-13T11:31:24;26.29;36.78
72277;SHT30;61204;49.980;8.358;2023-05-13T11:34:11;26.17;36.74
72277;SHT30;61204;49.980;8.358;2023-05-13T11:36:38;25.71;37.99
72277;SHT30;61204;49.980;8.358;2023-05-13T11:39:09;25.41;37.95
72277;SHT30;61204;49.980;8.358;2023-05-13T11:41:50;25.24;38.10
72277;SHT30;61204;49.980;8.358;2023-05-13T11:44:19;25.36;37.40
72277;SHT30;61204;49.980;8.358;2023-05-13T11:46:54;24.46;39.10
72277;SHT30;61204;49.980;8.358;2023-05-13T11:49:32;24.48;37.58
72277;SHT30;61204;49.980;8.358;2023-05-13T11:52:18;24.76;37.87
72277;SHT30;61204;49.980;8.358;2023-05-13T11:54:51;23.75;41.70
72277;SHT30;61204;49.980;8.358;2023-05-13T11:57:25;22.61;50.68
72277;SHT30;61204;49.980;8.358;2023-05-13T12:02:37;17.78;65.22
72277;SHT30;61204;49.980;8.358;2023-05-13T12:05:09;18.17;67.40
72277;SHT30;61204;49.980;8.358;2023-05-13T12:07:37;18.37;65.84
72277;SHT30;61204;49.980;8.358;2023-05-13T12:10:06;18.82;70.54
72277;SHT30;61204;49.980;8.358;2023-05-13T12:12:33;19.25;68.49
72277;SHT30;61204;49.980;8.358;2023-05-13T12:15:03;19.70;66.62
72277;SHT30;61204;49.980;8.358;2023-05-13T12:17:31;20.09;64.39
72277;SHT30;61204;49.980;8.358;2023-05-13T12:22:34;21.97;53.00
72277;SHT30;61204;49.980;8.358;2023-05-13T12:28:18;24.24;48.96
72277;SHT30;61204;49.980;8.358;2023-05-13T12:33:23;23.40;43.40
72277;SHT30;61204;49.980;8.358;2023-05-13T12:35:50;23.55;46.38
72277;SHT30;61204;49.980;8.358;2023-05-13T12:38:22;23.51;45.63
72277;SHT30;61204;49.980;8.358;2023-05-13T12:40:49;23.41;45.10
72277;SHT30;61204;49.980;8.358;2023-05-13T12:43:17;23.76;47.06
72277;SHT30;61204;49.980;8.358;2023-05-13T12:45:44;23.17;46.67
72277;SHT30;61204;49.980;8.358;2023-05-13T12:48:11;22.92;45.36
72277;SHT30;61204;49.980;8.358;2023-05-13T12:50:40;22.89;44.16
72277;SHT30;61204;49.980;8.358;2023-05-13T12:53:05;22.85;45.99
72277;SHT30;61204;49.980;8.358;2023-05-13T12:55:31;22.75;46.79
72277;SHT30;61204;49.980;8.358;2023-05-13T12:58:02;22.72;46.47
72277;SHT30;61204;49.980;8.358;2023-05-13T13:00:28;22.71;46.55
72277;SHT30;61204;49.980;8.358;2023-05-13T13:02:55;22.41;46.99
72277;SHT30;61204;49.980;8.358;2023-05-13T13:05:22;22.40;48.55
72277;SHT30;61204;49.980;8.358;2023-05-13T13:07:49;21.71;48.96
72277;SHT30;61204;49.980;8.358;2023-05-13T13:10:14;21.15;51.48
72277;SHT30;61204;49.980;8.358;2023-05-13T13:12:40;21.08;50.16
72277;SHT30;61204;49.980;8.358;2023-05-13T13:15:07;20.76;51.59
72277;SHT30;61204;49.980;8.358;2023-05-13T13:17:33;20.30;50.14
72277;SHT30;61204;49.980;8.358;2023-05-13T13:19:59;20.07;51.62
72277;SHT30;61204;49.980;8.358;2023-05-13T13:22:25;19.89;50.61
72277;SHT30;61204;49.980;8.358;2023-05-13T13:24:51;20.23;49.59
72277;SHT30;61204;49.980;8.358;2023-05-13T13:27:16;20.30;49.34
72277;SHT30;61204;49.980;8.358;2023-05-13T13:29:44;20.35;48.68
72277;SHT30;61204;49.980;8.358;2023-05-13T13:32:10;21.17;47.78
72277;SHT30;61204;49.980;8.358;2023-05-13T13:34:37;21.24;48.15
72277;SHT30;61204;49.980;8.358;2023-05-13T13:37:02;21.68;48.30
72277;SHT30;61204;49.980;8.358;2023-05-13T13:39:28;20.49;49.90
72277;SHT30;61204;49.980;8.358;2023-05-13T13:41:56;20.41;47.08
72277;SHT30;61204;49.980;8.358;2023-05-13T13:44:21;20.55;48.55
72277;SHT30;61204;49.980;8.358;2023-05-13T13:46:47;20.06;49.47
72277;SHT30;61204;49.980;8.358;2023-05-13T13:49:12;20.04;50.28
72277;SHT30;61204;49.980;8.358;2023-05-13T13:51:38;19.78;49.82
72277;SHT30;61204;49.980;8.358;2023-05-13T13:54:04;19.20;51.11
72277;SHT30;61204;49.980;8.358;2023-05-13T13:56:30;19.17;51.28
72277;SHT30;61204;49.980;8.358;2023-05-13T13:58:56;19.35;51.72
72277;SHT30;61204;49.980;8.358;2023-05-13T14:01:22;19.38;51.06
72277;SHT30;61204;49.980;8.358;2023-05-13T14:03:48;19.61;50.20
72277;SHT30;61204;49.980;8.358;2023-05-13T14:06:17;19.61;50.36
72277;SHT30;61204;49.980;8.358;2023-05-13T14:08:45;19.30;49.66
72277;SHT30;61204;49.980;8.358;2023-05-13T14:11:10;19.47;50.06
72277;SHT30;61204;49.980;8.358;2023-05-13T14:13:36;19.28;48.53
72277;SHT30;61204;49.980;8.358;2023-05-13T14:16:01;19.16;47.36
72277;SHT30;61204;49.980;8.358;2023-05-13T14:18:27;19.17;48.66
72277;SHT30;61204;49.980;8.358;2023-05-13T14:20:52;19.24;50.75
72277;SHT30;61204;49.980;8.358;2023-05-13T14:23:18;19.20;52.26
72277;SHT30;61204;49.980;8.358;2023-05-13T14:25:43;19.13;53.17
72277;SHT30;61204;49.980;8.358;2023-05-13T14:28:11;19.04;52.76
72277;SHT30;61204;49.980;8.358;2023-05-13T14:30:39;19.08;51.28
72277;SHT30;61204;49.980;8.358;2023-05-13T14:33:04;19.23;51.49
72277;SHT30;61204;49.980;8.358;2023-05-13T14:35:30;19.44;49.89
72277;SHT30;61204;49.980;8.358;2023-05-13T14:37:55;19.61;49.82
72277;SHT30;61204;49.980;8.358;2023-05-13T14:40:21;19.79;51.50
72277;SHT30;61204;49.980;8.358;2023-05-13T14:42:46;19.98;49.64
72277;SHT30;61204;49.980;8.358;2023-05-13T14:45:13;20.21;48.60
72277;SHT30;61204;49.980;8.358;2023-05-13T14:47:39;20.42;47.95
72277;SHT30;61204;49.980;8.358;2023-05-13T14:50:05;20.49;46.46
72277;SHT30;61204;49.980;8.358;2023-05-13T14:52:31;19.90;46.67
72277;SHT30;61204;49.980;8.358;2023-05-13T14:54:56;19.83;47.56
72277;SHT30;61204;49.980;8.358;2023-05-13T14:57:22;20.13;47.54
72277;SHT30;61204;49.980;8.358;2023-05-13T14:59:47;20.10;47.62
72277;SHT30;61204;49.980;8.358;2023-05-13T15:02:13;20.30;47.41
72277;SHT30;61204;49.980;8.358;2023-05-13T15:04:38;20.21;49.58
72277;SHT30;61204;49.980;8.358;2023-05-13T15:07:06;20.28;48.76
72277;SHT30;61204;49.980;8.358;2023-05-13T15:09:32;20.34;49.01
72277;SHT30;61204;49.980;8.358;2023-05-13T15:12:00;20.34;47.12
72277;SHT30;61204;49.980;8.358;2023-05-13T15:14:25;20.52;47.73
72277;SHT30;61204;49.980;8.358;2023-05-13T15:16:51;20.42;43.96
72277;SHT30;61204;49.980;8.358;2023-05-13T15:19:17;20.38;44.66
72277;SHT30;61204;49.980;8.358;2023-05-13T15:21:43;20.35;45.33
72277;SHT30;61204;49.980;8.358;2023-05-13T15:24:09;20.59;45.18
72277;SHT30;61204;49.980;8.358;2023-05-13T15:26:34;20.76;44.06
72277;SHT30;61204;49.980;8.358;2023-05-13T15:29:00;20.68;44.15
72277;SHT30;61204;49.980;8.358;2023-05-13T15:31:29;20.56;44.45
72277;SHT30;61204;49.980;8.358;2023-05-13T15:33:55;20.72;44.58
72277;SHT30;61204;49.980;8.358;2023-05-13T15:36:21;21.28;44.13
72277;SHT30;61204;49.980;8.358;2023-05-13T15:38:46;21.44;42.22
72277;SHT30;61204;49.980;8.358;2023-05-13T15:41:12;20.71;44.30
72277;SHT30;61204;49.980;8.358;2023-05-13T15:43:37;20.72;45.77
72277;SHT30;61204;49.980;8.358;2023-05-13T15:46:03;20.99;44.64
72277;SHT30;61204;49.980;8.358;2023-05-13T15:48:28;20.69;45.65
72277;SHT30;61204;49.980;8.358;2023-05-13T15:50:54;20.48;44.67
72277;SHT30;61204;49.980;8.358;2023-05-13T15:53:22;20.65;44.63